sensor_id;sensor_type;location;lat;lon;timestamp;P1;durP1;ratioP1;P2;durP2;ratioP2
72125;SDS011;59999;51.676;22.650;2024-02-28T00:00:09;28.42;;;12.68;;
72125;SDS011;59999;51.676;22.650;2024-02-28T00:02:56;33.10;;;13.25;;
72125;SDS011;59999;51.676;22.650;2024-02-28T00:05:22;35.80;;;14.20;;
72125;SDS011;59999;51.676;22.650;2024-02-28T00:07:47;31.33;;;12.77;;
72125;SDS011;59999;51.676;22.650;2024-02-28T00:10:13;32.67;;;13.27;;
72125;SDS011;59999;51.676;22.650;2024-02-28T00:12:39;30.70;;;13.90;;
72125;SDS011;59999;51.676;22.650;2024-02-28T00:15:06;32.08;;;13.80;;
72125;SDS011;59999;51.676;22.650;2024-02-28T00:17:38;29.50;;;13.50;;
72125;SDS011;59999;51.676;22.650;2024-02-28T00:20:08;36.83;;;14.60;;
72125;SDS011;59999;51.676;22.650;2024-02-28T00:22:38;25.92;;;12.50;;
72125;SDS011;59999;51.676;22.650;2024-02-28T00:25:04;28.83;;;13.70;;
72125;SDS011;59999;51.676;22.650;2024-02-28T00:27:32;33.85;;;14.02;;
72125;SDS011;59999;51.676;22.650;2024-02-28T00:29:59;29.15;;;13.15;;
72125;SDS011;59999;51.676;22.650;2024-02-28T00:32:25;32.45;;;13.73;;
72125;SDS011;59999;51.676;22.650;2024-02-28T00:34:50;33.13;;;14.48;;
72125;SDS011;59999;51.676;22.650;2024-02-28T00:37:16;31.67;;;14.17;;
72125;SDS011;59999;51.676;22.650;2024-02-28T00:39:43;32.17;;;13.40;;
72125;SDS011;59999;51.676;22.650;2024-02-28T00:42:10;32.05;;;12.93;;
72125;SDS011;59999;51.676;22.650;2024-02-28T00:44:36;31.40;;;13.50;;
72125;SDS011;59999;51.676;22.650;2024-02-28T00:47:01;33.35;;;14.43;;
72125;SDS011;59999;51.676;22.650;2024-02-28T00:49:27;32.08;;;13.57;;
72125;SDS011;59999;51.676;22.650;2024-02-28T00:51:53;32.47;;;13.67;;
72125;SDS011;59999;51.676;22.650;2024-02-28T00:54:19;34.33;;;14.63;;
72125;SDS011;59999;51.676;22.650;2024-02-28T00:56:46;34.30;;;13.95;;
72125;SDS011;59999;51.676;22.650;2024-02-28T00:59:13;31.70;;;13.50;;
72125;SDS011;59999;51.676;22.650;2024-02-28T01:01:39;28.35;;;13.45;;
72125;SDS011;59999;51.676;22.650;2024-02-28T01:04:05;29.95;;;13.68;;
72125;SDS011;59999;51.676;22.650;2024-02-28T01:06:31;31.90;;;14.20;;
72125;SDS011;59999;51.676;22.650;2024-02-28T01:08:57;31.63;;;14.65;;
72125;SDS011;59999;51.676;22.650;2024-02-28T01:11:23;34.97;;;14.43;;
72125;SDS011;59999;51.676;22.650;2024-02-28T01:13:49;29.92;;;13.30;;
72125;SDS011;59999;51.676;22.650;2024-02-28T01:16:14;34.07;;;14.60;;
72125;SDS011;59999;51.676;22.650;2024-02-28T01:18:40;34.25;;;14.10;;
72125;SDS011;59999;51.676;22.650;2024-02-28T01:21:06;29.80;;;14.32;;
72125;SDS011;59999;51.676;22.650;2024-02-28T01:23:32;33.90;;;13.95;;
72125;SDS011;59999;51.676;22.650;2024-02-28T01:25:58;31.80;;;14.23;;
72125;SDS011;59999;51.676;22.650;2024-02-28T01:28:25;31.98;;;13.57;;
72125;SDS011;59999;51.676;22.650;2024-02-28T01:30:51;35.97;;;14.68;;
72125;SDS011;59999;51.676;22.650;2024-02-28T01:33:17;36.58;;;15.30;;
72125;SDS011;59999;51.676;22.650;2024-02-28T01:35:42;33.67;;;13.80;;
72125;SDS011;59999;51.676;22.650;2024-02-28T01:38:08;31.70;;;14.13;;
72125;SDS011;59999;51.676;22.650;2024-02-28T01:40:34;32.43;;;14.87;;
72125;SDS011;59999;51.676;22.650;2024-02-28T01:43:03;32.25;;;14.18;;
72125;SDS011;59999;51.676;22.650;2024-02-28T01:45:32;31.95;;;14.43;;
72125;SDS011;59999;51.676;22.650;2024-02-28T01:47:58;32.28;;;14.50;;
72125;SDS011;59999;51.676;22.650;2024-02-28T01:50:24;34.88;;;14.90;;
72125;SDS011;59999;51.676;22.650;2024-02-28T01:52:50;34.20;;;14.27;;
72125;SDS011;59999;51.676;22.650;2024-02-28T01:55:16;33.78;;;14.82;;
72125;SDS011;59999;51.676;22.650;2024-02-28T01:57:42;36.20;;;14.70;;
72125;SDS011;59999;51.676;22.650;2024-02-28T02:00:08;36.00;;;14.77;;
72125;SDS011;59999;51.676;22.650;2024-02-28T02:02:36;31.88;;;14.65;;
72125;SDS011;59999;51.676;22.650;2024-02-28T02:05:02;33.72;;;14.50;;
72125;SDS011;59999;51.676;22.650;2024-02-28T02:07:29;37.25;;;14.23;;
72125;SDS011;59999;51.676;22.650;2024-02-28T02:09:56;31.60;;;14.30;;
72125;SDS011;59999;51.676;22.650;2024-02-28T02:12:22;34.97;;;14.40;;
72125;SDS011;59999;51.676;22.650;2024-02-28T02:14:48;38.87;;;15.10;;
72125;SDS011;59999;51.676;22.650;2024-02-28T02:17:14;35.30;;;14.57;;
72125;SDS011;59999;51.676;22.650;2024-02-28T02:19:41;35.87;;;15.00;;
72125;SDS011;59999;51.676;22.650;2024-02-28T02:22:08;33.70;;;13.82;;
72125;SDS011;59999;51.676;22.650;2024-02-28T02:24:34;32.42;;;14.10;;
72125;SDS011;59999;51.676;22.650;2024-02-28T02:27:01;37.17;;;15.15;;
72125;SDS011;59999;51.676;22.650;2024-02-28T02:29:30;34.92;;;15.15;;
72125;SDS011;59999;51.676;22.650;2024-02-28T02:31:56;33.47;;;14.20;;
72125;SDS011;59999;51.676;22.650;2024-02-28T02:34:22;32.45;;;14.32;;
72125;SDS011;59999;51.676;22.650;2024-02-28T02:36:48;35.40;;;14.50;;
72125;SDS011;59999;51.676;22.650;2024-02-28T02:39:13;35.20;;;15.43;;
72125;SDS011;59999;51.676;22.650;2024-02-28T02:41:39;33.08;;;14.25;;
72125;SDS011;59999;51.676;22.650;2024-02-28T02:44:06;32.75;;;15.10;;
72125;SDS011;59999;51.676;22.650;2024-02-28T02:46:33;33.78;;;15.70;;
72125;SDS011;59999;51.676;22.650;2024-02-28T02:48:59;32.75;;;14.77;;
72125;SDS011;59999;51.676;22.650;2024-02-28T02:51:25;35.65;;;15.05;;
72125;SDS011;59999;51.676;22.650;2024-02-28T02:53:51;30.10;;;15.02;;
72125;SDS011;59999;51.676;22.650;2024-02-28T02:56:17;34.33;;;15.10;;
72125;SDS011;59999;51.676;22.650;2024-02-28T02:58:43;37.37;;;15.43;;
72125;SDS011;59999;51.676;22.650;2024-02-28T03:01:09;32.90;;;14.10;;
72125;SDS011;59999;51.676;22.650;2024-02-28T03:03:34;33.95;;;14.52;;
72125;SDS011;59999;51.676;22.650;2024-02-28T03:06:03;37.27;;;14.60;;
72125;SDS011;59999;51.676;22.650;2024-02-28T03:08:30;32.65;;;14.73;;
72125;SDS011;59999;51.676;22.650;2024-02-28T03:10:56;31.35;;;14.18;;
72125;SDS011;59999;51.676;22.650;2024-02-28T03:13:22;31.53;;;14.10;;
72125;SDS011;59999;51.676;22.650;2024-02-28T03:15:48;32.30;;;14.30;;
72125;SDS011;59999;51.676;22.650;2024-02-28T03:18:14;33.50;;;14.65;;
72125;SDS011;59999;51.676;22.650;2024-02-28T03:20:40;32.83;;;14.67;;
72125;SDS011;59999;51.676;22.650;2024-02-28T03:23:05;35.33;;;15.10;;
72125;SDS011;59999;51.676;22.650;2024-02-28T03:25:32;32.65;;;14.73;;
72125;SDS011;59999;51.676;22.650;2024-02-28T03:27:58;34.83;;;15.37;;
72125;SDS011;59999;51.676;22.650;2024-02-28T03:30:25;34.08;;;15.00;;
72125;SDS011;59999;51.676;22.650;2024-02-28T03:32:51;35.38;;;14.90;;
72125;SDS011;59999;51.676;22.650;2024-02-28T03:35:17;34.67;;;15.55;;
72125;SDS011;59999;51.676;22.650;2024-02-28T03:37:42;32.60;;;15.07;;
72125;SDS011;59999;51.676;22.650;2024-02-28T03:40:08;38.58;;;16.13;;
72125;SDS011;59999;51.676;22.650;2024-02-28T03:42:34;32.80;;;15.07;;
72125;SDS011;59999;51.676;22.650;2024-02-28T03:45:01;32.97;;;15.35;;
72125;SDS011;59999;51.676;22.650;2024-02-28T03:47:27;33.75;;;15.38;;
72125;SDS011;59999;51.676;22.650;2024-02-28T03:49:53;32.58;;;15.52;;
72125;SDS011;59999;51.676;22.650;2024-02-28T03:52:22;37.95;;;15.77;;
72125;SDS011;59999;51.676;22.650;2024-02-28T03:54:49;34.80;;;14.13;;
72125;SDS011;59999;51.676;22.650;2024-02-28T03:57:14;35.55;;;14.52;;
72125;SDS011;59999;51.676;22.650;2024-02-28T03:59:41;33.00;;;14.38;;
72125;SDS011;59999;51.676;22.650;2024-02-28T04:02:06;39.65;;;16.20;;
72125;SDS011;59999;51.676;22.650;2024-02-28T04:04:32;33.20;;;15.52;;
72125;SDS011;59999;51.676;22.650;2024-02-28T04:06:59;36.05;;;15.02;;
72125;SDS011;59999;51.676;22.650;2024-02-28T04:09:25;34.47;;;15.00;;
72125;SDS011;59999;51.676;22.650;2024-02-28T04:11:50;32.90;;;15.35;;
72125;SDS011;59999;51.676;22.650;2024-02-28T04:14:17;33.75;;;14.95;;
72125;SDS011;59999;51.676;22.650;2024-02-28T04:16:43;32.43;;;14.73;;
72125;SDS011;59999;51.676;22.650;2024-02-28T04:19:10;35.53;;;15.25;;
72125;SDS011;59999;51.676;22.650;2024-02-28T04:21:36;32.60;;;15.07;;
72125;SDS011;59999;51.676;22.650;2024-02-28T04:24:03;35.17;;;14.70;;
72125;SDS011;59999;51.676;22.650;2024-02-28T04:26:29;37.20;;;15.63;;
72125;SDS011;59999;51.676;22.650;2024-02-28T04:28:55;33.42;;;14.95;;
72125;SDS011;59999;51.676;22.650;2024-02-28T04:31:22;37.03;;;15.43;;
72125;SDS011;59999;51.676;22.650;2024-02-28T04:33:48;34.33;;;14.45;;
72125;SDS011;59999;51.676;22.650;2024-02-28T04:36:13;33.80;;;15.23;;
72125;SDS011;59999;51.676;22.650;2024-02-28T04:38:41;34.40;;;15.52;;
72125;SDS011;59999;51.676;22.650;2024-02-28T04:41:07;34.25;;;14.15;;
72125;SDS011;59999;51.676;22.650;2024-02-28T04:43:33;33.65;;;15.02;;
72125;SDS011;59999;51.676;22.650;2024-02-28T04:45:59;34.42;;;15.02;;
72125;SDS011;59999;51.676;22.650;2024-02-28T04:48:25;31.97;;;13.60;;
72125;SDS011;59999;51.676;22.650;2024-02-28T04:50:51;34.08;;;14.77;;
72125;SDS011;59999;51.676;22.650;2024-02-28T04:53:17;37.13;;;15.48;;
72125;SDS011;59999;51.676;22.650;2024-02-28T04:55:42;38.73;;;15.13;;
72125;SDS011;59999;51.676;22.650;2024-02-28T04:58:08;38.78;;;15.02;;
72125;SDS011;59999;51.676;22.650;2024-02-28T05:00:34;31.47;;;14.60;;
72125;SDS011;59999;51.676;22.650;2024-02-28T05:03:00;35.47;;;15.00;;
72125;SDS011;59999;51.676;22.650;2024-02-28T05:05:26;33.00;;;14.65;;
72125;SDS011;59999;51.676;22.650;2024-02-28T05:07:52;33.40;;;14.57;;
72125;SDS011;59999;51.676;22.650;2024-02-28T05:10:17;36.78;;;15.02;;
72125;SDS011;59999;51.676;22.650;2024-02-28T05:12:43;35.73;;;15.50;;
72125;SDS011;59999;51.676;22.650;2024-02-28T05:15:09;35.47;;;14.88;;
72125;SDS011;59999;51.676;22.650;2024-02-28T05:17:35;30.80;;;14.93;;
72125;SDS011;59999;51.676;22.650;2024-02-28T05:20:01;32.80;;;15.20;;
72125;SDS011;59999;51.676;22.650;2024-02-28T05:22:27;34.70;;;15.65;;
72125;SDS011;59999;51.676;22.650;2024-02-28T05:24:52;32.17;;;14.73;;
72125;SDS011;59999;51.676;22.650;2024-02-28T05:27:19;38.83;;;15.45;;
72125;SDS011;59999;51.676;22.650;2024-02-28T05:29:45;31.38;;;14.23;;
72125;SDS011;59999;51.676;22.650;2024-02-28T05:32:11;34.00;;;15.17;;
72125;SDS011;59999;51.676;22.650;2024-02-28T05:34:37;34.30;;;14.45;;
72125;SDS011;59999;51.676;22.650;2024-02-28T05:37:03;33.92;;;14.65;;
72125;SDS011;59999;51.676;22.650;2024-02-28T05:39:28;33.97;;;14.77;;
72125;SDS011;59999;51.676;22.650;2024-02-28T05:41:56;31.55;;;14.43;;
72125;SDS011;59999;51.676;22.650;2024-02-28T05:44:23;32.97;;;14.75;;
72125;SDS011;59999;51.676;22.650;2024-02-28T05:46:50;34.28;;;15.45;;
72125;SDS011;59999;51.676;22.650;2024-02-28T05:49:15;34.08;;;15.75;;
72125;SDS011;59999;51.676;22.650;2024-02-28T05:51:41;36.30;;;15.90;;
72125;SDS011;59999;51.676;22.650;2024-02-28T05:54:07;36.88;;;14.93;;
72125;SDS011;59999;51.676;22.650;2024-02-28T05:56:33;30.95;;;14.77;;
72125;SDS011;59999;51.676;22.650;2024-02-28T05:58:59;33.57;;;15.23;;
72125;SDS011;59999;51.676;22.650;2024-02-28T06:01:25;35.00;;;15.55;;
72125;SDS011;59999;51.676;22.650;2024-02-28T06:03:51;36.53;;;16.13;;
72125;SDS011;59999;51.676;22.650;2024-02-28T06:06:17;33.03;;;15.23;;
72125;SDS011;59999;51.676;22.650;2024-02-28T06:08:43;37.60;;;15.63;;
72125;SDS011;59999;51.676;22.650;2024-02-28T06:11:09;34.92;;;16.13;;
72125;SDS011;59999;51.676;22.650;2024-02-28T06:13:35;35.30;;;15.77;;
72125;SDS011;59999;51.676;22.650;2024-02-28T06:16:02;33.85;;;15.68;;
72125;SDS011;59999;51.676;22.650;2024-02-28T06:18:28;35.20;;;15.48;;
72125;SDS011;59999;51.676;22.650;2024-02-28T06:20:58;32.17;;;14.52;;
72125;SDS011;59999;51.676;22.650;2024-02-28T06:23:25;37.05;;;15.68;;
72125;SDS011;59999;51.676;22.650;2024-02-28T06:25:51;33.53;;;14.88;;
72125;SDS011;59999;51.676;22.650;2024-02-28T06:28:17;32.92;;;15.82;;
72125;SDS011;59999;51.676;22.650;2024-02-28T06:30:43;35.53;;;15.20;;
72125;SDS011;59999;51.676;22.650;2024-02-28T06:33:12;30.98;;;14.90;;
72125;SDS011;59999;51.676;22.650;2024-02-28T06:35:39;33.22;;;15.40;;
72125;SDS011;59999;51.676;22.650;2024-02-28T06:38:05;31.13;;;15.45;;
72125;SDS011;59999;51.676;22.650;2024-02-28T06:40:31;34.88;;;15.70;;
72125;SDS011;59999;51.676;22.650;2024-02-28T06:42:57;33.60;;;15.07;;
72125;SDS011;59999;51.676;22.650;2024-02-28T06:45:23;33.45;;;14.98;;
72125;SDS011;59999;51.676;22.650;2024-02-28T06:47:48;33.87;;;16.23;;
72125;SDS011;59999;51.676;22.650;2024-02-28T06:50:14;34.42;;;16.00;;
72125;SDS011;59999;51.676;22.650;2024-02-28T06:52:41;38.58;;;15.50;;
72125;SDS011;59999;51.676;22.650;2024-02-28T06:55:07;36.47;;;16.17;;
72125;SDS011;59999;51.676;22.650;2024-02-28T06:57:36;34.22;;;15.35;;
72125;SDS011;59999;51.676;22.650;2024-02-28T07:00:07;34.17;;;15.63;;
72125;SDS011;59999;51.676;22.650;2024-02-28T07:02:36;35.33;;;14.95;;
72125;SDS011;59999;51.676;22.650;2024-02-28T07:05:03;32.83;;;15.00;;
72125;SDS011;59999;51.676;22.650;2024-02-28T07:07:32;31.23;;;15.88;;
72125;SDS011;59999;51.676;22.650;2024-02-28T07:09:59;33.05;;;15.38;;
72125;SDS011;59999;51.676;22.650;2024-02-28T07:12:25;35.10;;;15.43;;
72125;SDS011;59999;51.676;22.650;2024-02-28T07:14:51;31.88;;;14.60;;
72125;SDS011;59999;51.676;22.650;2024-02-28T07:17:17;31.85;;;15.55;;
72125;SDS011;59999;51.676;22.650;2024-02-28T07:19:43;35.58;;;15.65;;
72125;SDS011;59999;51.676;22.650;2024-02-28T07:22:09;29.55;;;14.73;;
72125;SDS011;59999;51.676;22.650;2024-02-28T07:24:35;30.70;;;14.77;;
72125;SDS011;59999;51.676;22.650;2024-02-28T07:27:02;33.67;;;14.63;;
72125;SDS011;59999;51.676;22.650;2024-02-28T07:29:28;29.23;;;14.82;;
72125;SDS011;59999;51.676;22.650;2024-02-28T07:31:54;31.42;;;14.63;;
72125;SDS011;59999;51.676;22.650;2024-02-28T07:34:20;33.28;;;15.52;;
72125;SDS011;59999;51.676;22.650;2024-02-28T07:36:46;32.42;;;14.88;;
72125;SDS011;59999;51.676;22.650;2024-02-28T07:39:12;32.22;;;14.70;;
72125;SDS011;59999;51.676;22.650;2024-02-28T07:41:40;34.35;;;15.45;;
72125;SDS011;59999;51.676;22.650;2024-02-28T07:44:07;33.43;;;15.50;;
72125;SDS011;59999;51.676;22.650;2024-02-28T07:46:34;29.52;;;15.30;;
72125;SDS011;59999;51.676;22.650;2024-02-28T07:49:00;32.95;;;14.80;;
72125;SDS011;59999;51.676;22.650;2024-02-28T07:51:27;30.95;;;14.50;;
72125;SDS011;59999;51.676;22.650;2024-02-28T07:53:53;28.58;;;14.00;;
72125;SDS011;59999;51.676;22.650;2024-02-28T07:56:20;29.43;;;14.70;;
72125;SDS011;59999;51.676;22.650;2024-02-28T07:58:46;30.20;;;14.40;;
72125;SDS011;59999;51.676;22.650;2024-02-28T08:01:12;30.03;;;14.33;;
72125;SDS011;59999;51.676;22.650;2024-02-28T08:03:38;30.93;;;14.63;;
72125;SDS011;59999;51.676;22.650;2024-02-28T08:06:04;30.27;;;15.57;;
72125;SDS011;59999;51.676;22.650;2024-02-28T08:08:30;31.13;;;14.65;;
72125;SDS011;59999;51.676;22.650;2024-02-28T08:10:56;29.67;;;14.93;;
72125;SDS011;59999;51.676;22.650;2024-02-28T08:13:22;33.80;;;15.32;;
72125;SDS011;59999;51.676;22.650;2024-02-28T08:15:48;34.37;;;15.53;;
72125;SDS011;59999;51.676;22.650;2024-02-28T08:18:13;32.80;;;15.67;;
72125;SDS011;59999;51.676;22.650;2024-02-28T08:20:39;31.35;;;14.48;;
72125;SDS011;59999;51.676;22.650;2024-02-28T08:23:05;33.20;;;14.20;;
72125;SDS011;59999;51.676;22.650;2024-02-28T08:25:32;29.80;;;14.90;;
72125;SDS011;59999;51.676;22.650;2024-02-28T08:27:58;30.35;;;13.52;;
72125;SDS011;59999;51.676;22.650;2024-02-28T08:30:24;27.92;;;13.50;;
72125;SDS011;59999;51.676;22.650;2024-02-28T08:32:51;28.23;;;14.55;;
72125;SDS011;59999;51.676;22.650;2024-02-28T08:35:18;29.40;;;14.77;;
72125;SDS011;59999;51.676;22.650;2024-02-28T08:37:44;31.50;;;14.20;;
72125;SDS011;59999;51.676;22.650;2024-02-28T08:40:10;31.10;;;14.60;;
72125;SDS011;59999;51.676;22.650;2024-02-28T08:42:37;30.08;;;14.68;;
72125;SDS011;59999;51.676;22.650;2024-02-28T08:45:03;29.53;;;14.20;;
72125;SDS011;59999;51.676;22.650;2024-02-28T08:47:31;32.00;;;15.23;;
72125;SDS011;59999;51.676;22.650;2024-02-28T08:49:57;31.25;;;15.73;;
72125;SDS011;59999;51.676;22.650;2024-02-28T08:52:23;32.40;;;15.10;;
72125;SDS011;59999;51.676;22.650;2024-02-28T08:54:48;30.02;;;14.18;;
72125;SDS011;59999;51.676;22.650;2024-02-28T08:57:15;33.33;;;16.23;;
72125;SDS011;59999;51.676;22.650;2024-02-28T08:59:40;33.10;;;15.43;;
72125;SDS011;59999;51.676;22.650;2024-02-28T09:02:07;33.33;;;15.00;;
72125;SDS011;59999;51.676;22.650;2024-02-28T09:04:33;33.03;;;15.02;;
72125;SDS011;59999;51.676;22.650;2024-02-28T09:06:59;29.42;;;14.35;;
72125;SDS011;59999;51.676;22.650;2024-02-28T09:09:26;34.73;;;14.40;;
72125;SDS011;59999;51.676;22.650;2024-02-28T09:11:53;32.45;;;15.48;;
72125;SDS011;59999;51.676;22.650;2024-02-28T09:14:19;30.70;;;15.07;;
72125;SDS011;59999;51.676;22.650;2024-02-28T09:16:45;34.60;;;17.00;;
72125;SDS011;59999;51.676;22.650;2024-02-28T09:19:10;33.60;;;15.57;;
72125;SDS011;59999;51.676;22.650;2024-02-28T09:21:36;33.85;;;16.50;;
72125;SDS011;59999;51.676;22.650;2024-02-28T09:24:02;35.53;;;16.43;;
72125;SDS011;59999;51.676;22.650;2024-02-28T09:26:28;33.85;;;16.27;;
72125;SDS011;59999;51.676;22.650;2024-02-28T09:28:54;27.83;;;14.77;;
72125;SDS011;59999;51.676;22.650;2024-02-28T09:31:20;30.20;;;14.73;;
72125;SDS011;59999;51.676;22.650;2024-02-28T09:33:45;32.78;;;15.75;;
72125;SDS011;59999;51.676;22.650;2024-02-28T09:36:12;29.93;;;14.77;;
72125;SDS011;59999;51.676;22.650;2024-02-28T09:38:38;31.90;;;14.80;;
72125;SDS011;59999;51.676;22.650;2024-02-28T09:41:04;31.17;;;15.38;;
72125;SDS011;59999;51.676;22.650;2024-02-28T09:43:31;31.03;;;14.63;;
72125;SDS011;59999;51.676;22.650;2024-02-28T09:46:03;30.83;;;14.97;;
72125;SDS011;59999;51.676;22.650;2024-02-28T09:48:30;32.10;;;15.60;;
72125;SDS011;59999;51.676;22.650;2024-02-28T09:50:56;30.75;;;15.15;;
72125;SDS011;59999;51.676;22.650;2024-02-28T09:53:23;32.05;;;15.57;;
72125;SDS011;59999;51.676;22.650;2024-02-28T09:55:50;35.90;;;15.32;;
72125;SDS011;59999;51.676;22.650;2024-02-28T09:58:17;30.70;;;15.77;;
72125;SDS011;59999;51.676;22.650;2024-02-28T10:00:43;38.42;;;16.42;;
72125;SDS011;59999;51.676;22.650;2024-02-28T10:03:10;33.42;;;16.27;;
72125;SDS011;59999;51.676;22.650;2024-02-28T10:05:39;32.65;;;16.30;;
72125;SDS011;59999;51.676;22.650;2024-02-28T10:08:05;29.07;;;15.03;;
72125;SDS011;59999;51.676;22.650;2024-02-28T10:10:31;31.05;;;15.93;;
72125;SDS011;59999;51.676;22.650;2024-02-28T10:12:57;37.23;;;16.23;;
72125;SDS011;59999;51.676;22.650;2024-02-28T10:15:27;36.87;;;16.30;;
72125;SDS011;59999;51.676;22.650;2024-02-28T10:17:53;32.80;;;15.48;;
72125;SDS011;59999;51.676;22.650;2024-02-28T10:20:19;31.05;;;15.75;;
72125;SDS011;59999;51.676;22.650;2024-02-28T10:22:45;31.60;;;16.02;;
72125;SDS011;59999;51.676;22.650;2024-02-28T10:25:11;30.13;;;16.50;;
72125;SDS011;59999;51.676;22.650;2024-02-28T10:27:36;32.60;;;15.85;;
72125;SDS011;59999;51.676;22.650;2024-02-28T10:30:02;31.10;;;16.33;;
72125;SDS011;59999;51.676;22.650;2024-02-28T10:32:32;35.78;;;16.75;;
72125;SDS011;59999;51.676;22.650;2024-02-28T10:35:00;34.17;;;16.30;;
72125;SDS011;59999;51.676;22.650;2024-02-28T10:37:31;34.57;;;17.30;;
72125;SDS011;59999;51.676;22.650;2024-02-28T10:39:58;42.97;;;21.35;;
72125;SDS011;59999;51.676;22.650;2024-02-28T10:42:27;38.38;;;18.95;;
72125;SDS011;59999;51.676;22.650;2024-02-28T10:44:55;42.95;;;20.15;;
72125;SDS011;59999;51.676;22.650;2024-02-28T10:47:25;39.05;;;21.27;;
72125;SDS011;59999;51.676;22.650;2024-02-28T10:49:52;38.57;;;19.87;;
72125;SDS011;59999;51.676;22.650;2024-02-28T10:52:19;39.67;;;20.00;;
72125;SDS011;59999;51.676;22.650;2024-02-28T10:54:49;42.60;;;20.75;;
72125;SDS011;59999;51.676;22.650;2024-02-28T10:57:21;40.42;;;20.00;;
72125;SDS011;59999;51.676;22.650;2024-02-28T10:59:49;39.40;;;19.27;;
72125;SDS011;59999;51.676;22.650;2024-02-28T11:02:16;39.57;;;19.73;;
72125;SDS011;59999;51.676;22.650;2024-02-28T11:04:41;37.80;;;19.50;;
72125;SDS011;59999;51.676;22.650;2024-02-28T11:07:07;33.95;;;18.52;;
72125;SDS011;59999;51.676;22.650;2024-02-28T11:09:33;37.27;;;18.43;;
72125;SDS011;59999;51.676;22.650;2024-02-28T11:12:00;35.92;;;18.90;;
72125;SDS011;59999;51.676;22.650;2024-02-28T11:14:25;35.27;;;19.20;;
72125;SDS011;59999;51.676;22.650;2024-02-28T11:17:01;33.60;;;20.00;;
72125;SDS011;59999;51.676;22.650;2024-02-28T11:19:31;34.75;;;19.10;;
72125;SDS011;59999;51.676;22.650;2024-02-28T11:21:59;36.22;;;19.67;;
72125;SDS011;59999;51.676;22.650;2024-02-28T11:24:44;41.80;;;20.75;;
72125;SDS011;59999;51.676;22.650;2024-02-28T11:27:13;40.55;;;19.67;;
72125;SDS011;59999;51.676;22.650;2024-02-28T11:29:41;38.10;;;19.60;;
72125;SDS011;59999;51.676;22.650;2024-02-28T11:32:07;35.38;;;19.77;;
72125;SDS011;59999;51.676;22.650;2024-02-28T11:34:35;41.00;;;22.13;;
72125;SDS011;59999;51.676;22.650;2024-02-28T11:37:02;39.40;;;19.77;;
72125;SDS011;59999;51.676;22.650;2024-02-28T11:39:29;38.70;;;19.00;;
72125;SDS011;59999;51.676;22.650;2024-02-28T11:42:10;36.50;;;18.10;;
72125;SDS011;59999;51.676;22.650;2024-02-28T11:44:39;37.97;;;19.17;;
72125;SDS011;59999;51.676;22.650;2024-02-28T11:47:08;38.40;;;20.40;;
72125;SDS011;59999;51.676;22.650;2024-02-28T11:49:36;38.88;;;20.85;;
72125;SDS011;59999;51.676;22.650;2024-02-28T11:52:04;41.17;;;20.63;;
72125;SDS011;59999;51.676;22.650;2024-02-28T11:54:30;37.47;;;19.83;;
72125;SDS011;59999;51.676;22.650;2024-02-28T11:56:56;42.90;;;22.08;;
72125;SDS011;59999;51.676;22.650;2024-02-28T11:59:21;40.13;;;19.85;;
72125;SDS011;59999;51.676;22.650;2024-02-28T12:01:48;42.10;;;20.20;;
72125;SDS011;59999;51.676;22.650;2024-02-28T12:04:13;35.00;;;18.90;;
72125;SDS011;59999;51.676;22.650;2024-02-28T12:06:40;38.63;;;18.08;;
72125;SDS011;59999;51.676;22.650;2024-02-28T12:09:06;38.50;;;18.63;;
72125;SDS011;59999;51.676;22.650;2024-02-28T12:11:34;34.03;;;17.38;;
72125;SDS011;59999;51.676;22.650;2024-02-28T12:14:07;31.27;;;16.83;;
72125;SDS011;59999;51.676;22.650;2024-02-28T12:16:40;30.98;;;16.80;;
72125;SDS011;59999;51.676;22.650;2024-02-28T12:19:09;34.13;;;18.13;;
72125;SDS011;59999;51.676;22.650;2024-02-28T12:21:39;37.23;;;17.80;;
72125;SDS011;59999;51.676;22.650;2024-02-28T12:24:09;28.90;;;16.30;;
72125;SDS011;59999;51.676;22.650;2024-02-28T12:26:36;33.53;;;17.42;;
72125;SDS011;59999;51.676;22.650;2024-02-28T12:29:02;32.00;;;16.58;;
72125;SDS011;59999;51.676;22.650;2024-02-28T12:31:28;27.30;;;15.30;;
72125;SDS011;59999;51.676;22.650;2024-02-28T12:33:54;29.50;;;14.53;;
72125;SDS011;59999;51.676;22.650;2024-02-28T12:36:20;27.65;;;15.35;;
72125;SDS011;59999;51.676;22.650;2024-02-28T12:38:46;33.20;;;17.17;;
72125;SDS011;59999;51.676;22.650;2024-02-28T12:41:13;26.92;;;14.95;;
72125;SDS011;59999;51.676;22.650;2024-02-28T12:43:40;33.67;;;16.07;;
72125;SDS011;59999;51.676;22.650;2024-02-28T12:46:06;33.13;;;16.48;;
72125;SDS011;59999;51.676;22.650;2024-02-28T12:48:40;33.42;;;16.63;;
72125;SDS011;59999;51.676;22.650;2024-02-28T12:51:08;28.58;;;14.82;;
72125;SDS011;59999;51.676;22.650;2024-02-28T12:53:35;30.02;;;15.43;;
72125;SDS011;59999;51.676;22.650;2024-02-28T12:56:02;30.67;;;15.37;;
72125;SDS011;59999;51.676;22.650;2024-02-28T12:58:29;34.03;;;15.45;;
72125;SDS011;59999;51.676;22.650;2024-02-28T13:00:55;30.17;;;16.27;;
72125;SDS011;59999;51.676;22.650;2024-02-28T13:03:20;33.47;;;16.40;;
72125;SDS011;59999;51.676;22.650;2024-02-28T13:05:46;37.67;;;18.38;;
72125;SDS011;59999;51.676;22.650;2024-02-28T13:08:12;35.20;;;17.87;;
72125;SDS011;59999;51.676;22.650;2024-02-28T13:10:38;33.97;;;17.67;;
72125;SDS011;59999;51.676;22.650;2024-02-28T13:13:07;33.00;;;17.83;;
72125;SDS011;59999;51.676;22.650;2024-02-28T13:15:33;33.78;;;17.30;;
72125;SDS011;59999;51.676;22.650;2024-02-28T13:17:59;34.83;;;17.20;;
72125;SDS011;59999;51.676;22.650;2024-02-28T13:20:26;34.15;;;17.10;;
72125;SDS011;59999;51.676;22.650;2024-02-28T13:22:52;38.70;;;18.33;;
72125;SDS011;59999;51.676;22.650;2024-02-28T13:25:19;33.75;;;17.35;;
72125;SDS011;59999;51.676;22.650;2024-02-28T13:27:45;32.13;;;16.90;;
72125;SDS011;59999;51.676;22.650;2024-02-28T13:30:12;34.20;;;17.30;;
72125;SDS011;59999;51.676;22.650;2024-02-28T13:32:39;31.00;;;15.00;;
72125;SDS011;59999;51.676;22.650;2024-02-28T13:35:05;32.92;;;15.48;;
72125;SDS011;59999;51.676;22.650;2024-02-28T13:37:31;37.28;;;19.90;;
72125;SDS011;59999;51.676;22.650;2024-02-28T13:39:59;142.38;;;69.32;;
72125;SDS011;59999;51.676;22.650;2024-02-28T13:42:24;203.37;;;82.87;;
72125;SDS011;59999;51.676;22.650;2024-02-28T13:44:51;48.95;;;23.67;;
72125;SDS011;59999;51.676;22.650;2024-02-28T13:47:17;45.55;;;21.92;;
72125;SDS011;59999;51.676;22.650;2024-02-28T13:49:43;160.55;;;91.65;;
72125;SDS011;59999;51.676;22.650;2024-02-28T13:52:08;90.97;;;48.17;;
72125;SDS011;59999;51.676;22.650;2024-02-28T13:54:34;45.47;;;24.30;;
72125;SDS011;59999;51.676;22.650;2024-02-28T13:57:00;73.23;;;35.83;;
72125;SDS011;59999;51.676;22.650;2024-02-28T13:59:27;111.60;;;57.90;;
72125;SDS011;59999;51.676;22.650;2024-02-28T14:01:53;88.93;;;46.47;;
72125;SDS011;59999;51.676;22.650;2024-02-28T14:04:19;90.97;;;47.85;;